createdAt,value
2022-07-31T00:01:58.563Z,3.33
2022-07-31T00:04:44.575Z,2.90
2022-07-31T00:07:30.795Z,2.73
2022-07-31T00:10:17.305Z,3.00
2022-07-31T00:13:03.555Z,2.70
2022-07-31T00:15:51.387Z,3.20
2022-07-31T00:18:37.924Z,3.17
2022-07-31T00:21:24.549Z,3.10
2022-07-31T00:24:10.911Z,3.20
2022-07-31T00:26:57.403Z,3.27
2022-07-31T00:29:43.800Z,3.07
2022-07-31T00:32:31.572Z,3.60
2022-07-31T00:35:18.131Z,3.10
2022-07-31T00:38:26.205Z,3.20
2022-07-31T00:41:10.442Z,3.10
2022-07-31T00:43:56.674Z,3.40
2022-07-31T00:46:44.931Z,3.10
2022-07-31T00:49:37.835Z,3.03
2022-07-31T00:52:25.084Z,3.17
2022-07-31T00:55:11.451Z,3.57
2022-07-31T00:57:58.340Z,3.43
2022-07-31T01:00:44.793Z,3.27
2022-07-31T01:03:32.109Z,3.40
2022-07-31T01:06:20.073Z,3.47
2022-07-31T01:09:06.386Z,3.10
2022-07-31T01:12:06.841Z,3.30
2022-07-31T01:14:55.149Z,2.97
2022-07-31T01:17:45.252Z,3.10
2022-07-31T01:20:32.370Z,3.50
2022-07-31T01:23:36.563Z,3.57
2022-07-31T01:26:35.632Z,3.10
2022-07-31T01:29:26.782Z,3.60
2022-07-31T01:32:17.593Z,3.40
2022-07-31T01:35:07.540Z,3.40
2022-07-31T01:37:56.582Z,3.23
2022-07-31T01:40:47.327Z,3.77
2022-07-31T01:43:37.845Z,3.43
2022-07-31T01:46:28.494Z,3.80
2022-07-31T01:49:16.845Z,3.40
2022-07-31T01:52:05.484Z,3.37
2022-07-31T01:54:54.308Z,3.50
2022-07-31T01:57:43.591Z,3.07
2022-07-31T02:00:34.436Z,3.10
2022-07-31T02:03:43.651Z,3.40
2022-07-31T02:06:31.559Z,3.53
2022-07-31T02:09:20.000Z,3.67
2022-07-31T02:12:09.826Z,3.43
2022-07-31T02:14:57.856Z,3.60
2022-07-31T02:17:47.881Z,3.53
2022-07-31T02:20:35.837Z,3.43
2022-07-31T02:23:22.057Z,3.50
2022-07-31T02:26:08.713Z,3.40
2022-07-31T02:28:55.571Z,3.67
2022-07-31T02:31:44.670Z,3.63
2022-07-31T02:34:32.958Z,3.60
2022-07-31T02:37:20.772Z,3.63
2022-07-31T02:40:12.565Z,3.23
2022-07-31T02:42:58.893Z,3.70
2022-07-31T02:45:45.371Z,3.63
2022-07-31T02:48:33.619Z,3.50
2022-07-31T02:51:20.047Z,3.50
2022-07-31T02:54:08.016Z,3.90
2022-07-31T02:56:54.850Z,3.73
2022-07-31T02:59:41.204Z,3.57
2022-07-31T03:02:34.585Z,3.53
2022-07-31T03:05:24.468Z,3.77
2022-07-31T03:08:11.002Z,3.60
2022-07-31T03:10:58.931Z,3.50
2022-07-31T03:13:46.552Z,3.63
2022-07-31T03:16:33.987Z,3.57
2022-07-31T03:19:21.798Z,3.67
2022-07-31T03:22:14.956Z,3.73
2022-07-31T03:25:03.597Z,3.20
2022-07-31T03:27:56.241Z,3.50
2022-07-31T03:30:43.359Z,3.60
2022-07-31T03:33:29.829Z,3.67
2022-07-31T03:36:16.262Z,3.30
2022-07-31T03:39:02.580Z,3.90
2022-07-31T03:41:50.217Z,3.50
2022-07-31T03:44:39.333Z,3.67
2022-07-31T03:47:26.116Z,3.30
2022-07-31T03:50:12.462Z,4.10
2022-07-31T03:52:59.230Z,3.53
2022-07-31T03:55:46.623Z,3.30
2022-07-31T03:58:33.657Z,3.30
2022-07-31T04:01:22.778Z,3.67
2022-07-31T04:04:10.584Z,3.40
2022-07-31T04:06:57.310Z,3.50
2022-07-31T04:09:43.634Z,3.80
2022-07-31T04:12:30.128Z,3.60
2022-07-31T04:15:16.481Z,4.00
2022-07-31T04:18:03.827Z,3.80
2022-07-31T04:20:50.184Z,3.87
2022-07-31T04:23:36.240Z,3.67
2022-07-31T04:26:26.386Z,3.57
2022-07-31T04:29:12.684Z,3.70
2022-07-31T04:31:58.883Z,3.90
2022-07-31T04:34:46.290Z,3.57
2022-07-31T04:37:33.463Z,3.57
2022-07-31T04:40:19.535Z,3.70
2022-07-31T04:43:05.933Z,3.53
2022-07-31T04:45:52.348Z,3.47
2022-07-31T04:48:38.731Z,3.57
2022-07-31T04:51:28.871Z,3.60
2022-07-31T04:54:14.863Z,3.60
2022-07-31T04:57:01.030Z,3.93
2022-07-31T05:00:00.303Z,3.50
2022-07-31T05:02:47.699Z,3.50
2022-07-31T05:05:33.745Z,3.87
2022-07-31T05:08:21.499Z,3.60
2022-07-31T05:11:23.687Z,4.00
2022-07-31T05:14:11.529Z,4.10
2022-07-31T05:16:57.613Z,5.20
2022-07-31T05:19:43.785Z,4.00
2022-07-31T05:22:30.079Z,4.30
2022-07-31T05:25:17.793Z,4.23
2022-07-31T05:28:04.082Z,3.90
2022-07-31T05:30:56.213Z,3.57
2022-07-31T05:33:43.257Z,4.07
2022-07-31T05:36:29.651Z,3.97
2022-07-31T05:39:17.490Z,3.90
2022-07-31T05:42:05.924Z,3.87
2022-07-31T05:44:52.899Z,5.13
2022-07-31T05:47:40.113Z,4.10
2022-07-31T05:50:27.246Z,4.07
2022-07-31T05:53:15.283Z,3.87
2022-07-31T05:56:01.467Z,4.20
2022-07-31T05:58:49.196Z,4.30
2022-07-31T06:01:35.458Z,3.70
2022-07-31T06:04:21.743Z,4.13
2022-07-31T06:07:08.140Z,3.90
2022-07-31T06:09:54.708Z,4.17
2022-07-31T06:12:40.863Z,4.77
2022-07-31T06:15:32.017Z,3.80
2022-07-31T06:18:20.654Z,5.30
2022-07-31T06:21:06.823Z,4.77
2022-07-31T06:23:52.952Z,4.60
2022-07-31T06:26:39.127Z,4.40
2022-07-31T06:29:41.767Z,5.10
2022-07-31T06:32:29.633Z,5.23
2022-07-31T06:35:15.786Z,4.53
2022-07-31T06:38:01.992Z,5.77
2022-07-31T06:40:48.229Z,5.20
2022-07-31T06:43:34.693Z,5.57
2022-07-31T06:46:21.444Z,5.13
2022-07-31T06:49:09.572Z,5.40
2022-07-31T06:51:55.736Z,5.80
2022-07-31T06:54:42.923Z,5.50
2022-07-31T06:57:29.126Z,5.40
2022-07-31T07:00:20.343Z,5.53
2022-07-31T07:03:06.888Z,6.27
2022-07-31T07:05:55.056Z,5.10
2022-07-31T07:08:41.984Z,5.63
2022-07-31T07:11:28.091Z,6.33
2022-07-31T07:14:14.804Z,6.20
2022-07-31T07:17:04.517Z,6.10
2022-07-31T07:19:54.736Z,6.50
2022-07-31T07:22:43.206Z,6.50
2022-07-31T07:25:29.685Z,6.50
2022-07-31T07:28:30.743Z,6.27
2022-07-31T07:31:16.933Z,7.03
2022-07-31T07:34:06.022Z,6.73
2022-07-31T07:36:52.346Z,7.33
2022-07-31T07:39:39.845Z,7.37
2022-07-31T07:42:26.221Z,7.10
2022-07-31T07:45:13.986Z,7.20
2022-07-31T07:48:06.270Z,6.63
2022-07-31T07:50:53.741Z,7.23
2022-07-31T07:53:40.351Z,7.67
2022-07-31T07:56:27.951Z,8.00
2022-07-31T07:59:14.730Z,7.17
2022-07-31T08:02:01.677Z,8.80
2022-07-31T08:04:48.445Z,8.10
2022-07-31T08:07:42.487Z,8.10
2022-07-31T08:10:29.578Z,7.80
2022-07-31T08:13:17.366Z,7.70
2022-07-31T08:16:03.615Z,8.13
2022-07-31T08:18:51.378Z,7.77
2022-07-31T08:21:39.142Z,7.30
2022-07-31T08:24:25.239Z,7.30
2022-07-31T08:27:39.988Z,6.70
2022-07-31T08:30:29.227Z,5.67
2022-07-31T08:33:17.442Z,5.87
2022-07-31T08:36:04.710Z,6.47
2022-07-31T08:38:52.037Z,5.73
2022-07-31T08:41:40.542Z,5.53
2022-07-31T08:44:29.635Z,5.70
2022-07-31T08:47:19.083Z,5.63
2022-07-31T08:50:06.304Z,6.90
2022-07-31T08:52:56.101Z,4.97
2022-07-31T08:55:54.974Z,5.23
2022-07-31T08:58:45.161Z,4.97
2022-07-31T09:01:34.116Z,5.10
2022-07-31T09:04:21.685Z,5.10
2022-07-31T09:07:11.796Z,5.33
2022-07-31T09:09:58.183Z,4.43
2022-07-31T09:12:44.357Z,4.10
2022-07-31T09:15:31.892Z,4.07
2022-07-31T09:18:19.647Z,3.87
2022-07-31T09:21:08.339Z,3.80
2022-07-31T09:23:55.166Z,3.60
2022-07-31T09:26:41.730Z,4.13
2022-07-31T09:29:34.840Z,4.10
2022-07-31T09:32:22.062Z,5.00
2022-07-31T09:35:13.597Z,4.13
2022-07-31T09:38:01.457Z,4.07
2022-07-31T09:40:56.781Z,4.17
2022-07-31T09:43:51.506Z,4.23
2022-07-31T09:46:42.204Z,4.73
2022-07-31T09:49:32.489Z,4.50
2022-07-31T09:52:19.293Z,5.13
2022-07-31T09:55:15.713Z,5.50
2022-07-31T09:58:02.927Z,5.63
2022-07-31T10:00:52.674Z,5.20
2022-07-31T10:03:41.242Z,4.87
2022-07-31T10:06:29.850Z,5.10
2022-07-31T10:09:18.315Z,5.93
2022-07-31T10:12:07.779Z,6.07
2022-07-31T10:14:56.901Z,6.20
2022-07-31T10:17:46.545Z,6.73
2022-07-31T10:20:35.349Z,5.83
2022-07-31T10:23:25.259Z,6.07
2022-07-31T10:26:11.633Z,5.93
2022-07-31T10:28:59.746Z,6.70
2022-07-31T10:31:47.050Z,5.90
2022-07-31T10:34:34.886Z,6.23
2022-07-31T10:37:24.273Z,6.50
2022-07-31T10:40:19.976Z,6.20
2022-07-31T10:43:20.132Z,6.63
2022-07-31T10:46:07.682Z,5.70
2022-07-31T10:48:54.184Z,5.70
2022-07-31T10:51:47.930Z,5.97
2022-07-31T10:54:40.433Z,6.20
2022-07-31T10:57:28.282Z,5.80
2022-07-31T11:00:17.813Z,6.00
2022-07-31T11:03:15.657Z,4.93
2022-07-31T11:06:03.158Z,5.27
2022-07-31T11:08:52.342Z,5.40
2022-07-31T11:11:38.896Z,4.83
2022-07-31T11:14:35.580Z,4.50
2022-07-31T11:18:23.841Z,4.00
2022-07-31T11:20:39.752Z,4.17
2022-07-31T11:23:30.668Z,3.67
2022-07-31T11:26:18.207Z,3.80
2022-07-31T11:29:58.941Z,3.90
2022-07-31T11:32:37.330Z,3.50
2022-07-31T11:35:32.134Z,4.33
2022-07-31T11:38:20.076Z,3.87
2022-07-31T11:41:07.127Z,3.50
2022-07-31T11:43:57.401Z,3.20
2022-07-31T11:46:43.526Z,3.60
2022-07-31T11:49:48.251Z,3.70
2022-07-31T11:52:37.284Z,3.83
2022-07-31T11:55:25.224Z,3.57
2022-07-31T11:58:11.715Z,3.73
2022-07-31T12:01:00.027Z,3.80
2022-07-31T12:03:47.765Z,3.70
2022-07-31T12:06:36.448Z,3.30
2022-07-31T12:10:02.471Z,4.07
2022-07-31T12:12:31.496Z,3.40
2022-07-31T12:15:20.246Z,3.97
2022-07-31T12:18:06.852Z,3.50
2022-07-31T12:20:54.085Z,3.50
2022-07-31T12:23:42.055Z,3.63
2022-07-31T12:26:30.221Z,4.07
2022-07-31T12:29:17.832Z,4.40
2022-07-31T12:32:05.269Z,3.87
2022-07-31T12:35:02.758Z,3.70
2022-07-31T12:37:51.025Z,3.90
2022-07-31T12:40:37.543Z,4.37
2022-07-31T12:43:24.591Z,4.03
2022-07-31T12:46:14.762Z,3.80
2022-07-31T12:49:01.200Z,4.00
2022-07-31T12:51:47.804Z,4.17
2022-07-31T12:54:37.789Z,4.27
2022-07-31T12:57:25.864Z,4.13
2022-07-31T13:00:12.923Z,3.40
2022-07-31T13:03:00.895Z,3.33
2022-07-31T13:05:51.897Z,3.30
2022-07-31T13:08:38.528Z,3.30
2022-07-31T13:11:26.014Z,3.30
2022-07-31T13:14:12.506Z,3.20
2022-07-31T13:17:00.074Z,3.63
2022-07-31T13:19:47.762Z,3.10
2022-07-31T13:22:34.150Z,3.67
2022-07-31T13:25:20.766Z,3.70
2022-07-31T13:28:07.089Z,3.50
2022-07-31T13:30:55.276Z,3.90
2022-07-31T13:33:41.790Z,3.93
2022-07-31T13:36:32.809Z,3.97
2022-07-31T13:39:22.260Z,4.00
2022-07-31T13:42:08.476Z,3.80
2022-07-31T13:44:59.505Z,3.20
2022-07-31T13:47:51.307Z,2.90
2022-07-31T13:50:39.412Z,3.50
2022-07-31T13:53:27.252Z,4.10
2022-07-31T13:56:13.706Z,4.37
2022-07-31T13:59:20.154Z,3.00
2022-07-31T14:02:06.195Z,3.00
2022-07-31T14:04:52.513Z,3.20
2022-07-31T14:07:45.252Z,3.27
2022-07-31T14:10:36.299Z,3.00
2022-07-31T14:13:24.189Z,3.07
2022-07-31T14:16:10.666Z,3.50
2022-07-31T14:18:57.575Z,2.90
2022-07-31T14:21:49.994Z,3.30
2022-07-31T14:24:50.013Z,3.00
2022-07-31T14:27:39.475Z,3.30
2022-07-31T14:30:26.829Z,4.13
2022-07-31T14:33:13.869Z,3.30
2022-07-31T14:35:59.908Z,3.43
2022-07-31T14:38:46.165Z,3.63
2022-07-31T14:41:32.407Z,3.20
2022-07-31T14:44:21.415Z,3.30
2022-07-31T14:47:15.010Z,3.37
2022-07-31T14:50:09.249Z,3.97
2022-07-31T14:52:56.637Z,4.27
2022-07-31T14:55:42.790Z,4.30
2022-07-31T14:58:29.321Z,4.33
2022-07-31T15:01:16.822Z,4.00
2022-07-31T15:04:03.081Z,4.07
2022-07-31T15:07:07.302Z,3.87
2022-07-31T15:09:55.848Z,3.80
2022-07-31T15:12:41.860Z,3.67
2022-07-31T15:15:28.516Z,3.55
2022-07-31T15:18:16.563Z,3.45
2022-07-31T15:21:03.209Z,3.53
2022-07-31T15:23:49.833Z,3.30
2022-07-31T15:26:36.006Z,3.65
2022-07-31T15:29:22.723Z,4.00
2022-07-31T15:32:09.013Z,3.58
2022-07-31T15:34:56.868Z,3.83
2022-07-31T15:37:45.227Z,6.22
2022-07-31T15:40:31.715Z,3.60
2022-07-31T15:43:18.439Z,3.65
2022-07-31T15:46:07.820Z,3.65
2022-07-31T15:48:53.980Z,3.60
2022-07-31T15:51:41.427Z,3.47
2022-07-31T15:54:27.763Z,3.60
2022-07-31T15:57:14.553Z,3.70
2022-07-31T16:00:01.332Z,3.30
2022-07-31T16:02:47.673Z,3.70
2022-07-31T16:05:36.778Z,3.13
2022-07-31T16:08:29.509Z,3.50
2022-07-31T16:11:21.027Z,2.97
2022-07-31T16:14:07.553Z,3.23
2022-07-31T16:17:02.580Z,3.07
2022-07-31T16:19:49.001Z,3.27
2022-07-31T16:22:35.418Z,3.17
2022-07-31T16:25:23.928Z,4.27
2022-07-31T16:28:10.277Z,5.17
2022-07-31T16:30:56.648Z,4.30
2022-07-31T16:33:43.310Z,4.33
2022-07-31T16:36:36.858Z,4.83
2022-07-31T16:39:23.163Z,5.43
2022-07-31T16:42:10.657Z,5.50
2022-07-31T16:44:58.281Z,6.33
2022-07-31T16:47:45.754Z,6.63
2022-07-31T16:50:38.085Z,6.17
2022-07-31T16:54:11.278Z,6.60
2022-07-31T16:56:32.123Z,7.03
2022-07-31T16:59:19.789Z,6.27
2022-07-31T17:02:06.408Z,6.77
2022-07-31T17:04:54.204Z,6.53
2022-07-31T17:07:40.558Z,6.83
2022-07-31T17:10:27.063Z,7.03
2022-07-31T17:13:14.037Z,7.67
2022-07-31T17:16:01.868Z,7.60
2022-07-31T17:18:52.605Z,7.43
2022-07-31T17:21:43.950Z,8.23
2022-07-31T17:24:31.507Z,8.53
2022-07-31T17:27:19.125Z,9.50
2022-07-31T17:30:06.604Z,9.10
2022-07-31T17:32:54.242Z,9.37
2022-07-31T17:35:40.731Z,9.67
2022-07-31T17:38:27.212Z,9.10
2022-07-31T17:41:25.418Z,9.43
2022-07-31T17:44:12.380Z,9.10
2022-07-31T17:46:59.457Z,9.40
2022-07-31T17:49:51.096Z,9.07
2022-07-31T17:52:37.826Z,9.13
2022-07-31T17:55:24.312Z,10.70
2022-07-31T17:58:10.510Z,10.60
2022-07-31T18:00:56.575Z,9.77
2022-07-31T18:03:42.718Z,11.97
2022-07-31T18:06:30.738Z,10.07
2022-07-31T18:09:20.278Z,9.70
2022-07-31T18:12:09.005Z,9.27
2022-07-31T18:14:58.699Z,8.10
2022-07-31T18:17:47.233Z,8.00
2022-07-31T18:20:33.867Z,6.77
2022-07-31T18:23:22.922Z,7.17
2022-07-31T18:26:09.954Z,5.20
2022-07-31T18:28:56.437Z,4.57
2022-07-31T18:31:42.966Z,4.30
2022-07-31T18:34:29.248Z,4.00
2022-07-31T18:37:16.290Z,3.63
2022-07-31T18:40:06.006Z,3.80
2022-07-31T18:42:52.432Z,3.40
2022-07-31T18:45:41.619Z,3.63
2022-07-31T18:48:27.952Z,3.90
2022-07-31T18:51:14.478Z,3.87
2022-07-31T18:54:03.531Z,3.77
2022-07-31T18:56:51.041Z,4.03
2022-07-31T18:59:41.629Z,3.80
2022-07-31T19:02:28.063Z,4.07
2022-07-31T19:05:21.229Z,4.33
2022-07-31T19:08:08.054Z,3.70
2022-07-31T19:10:54.316Z,3.87
2022-07-31T19:13:41.888Z,4.20
2022-07-31T19:16:28.431Z,4.73
2022-07-31T19:19:15.549Z,4.50
2022-07-31T19:22:04.382Z,3.97
2022-07-31T19:24:51.553Z,4.33
2022-07-31T19:27:48.061Z,4.40
2022-07-31T19:30:41.696Z,5.03
2022-07-31T19:33:32.378Z,4.73
2022-07-31T19:36:18.476Z,5.20
2022-07-31T19:39:05.218Z,4.60
2022-07-31T19:42:10.870Z,4.70
2022-07-31T19:44:58.010Z,4.90
2022-07-31T19:47:45.588Z,4.77
2022-07-31T19:50:32.030Z,5.00
2022-07-31T19:53:18.321Z,5.57
2022-07-31T19:56:06.274Z,5.10
2022-07-31T19:58:52.998Z,7.70
2022-07-31T20:01:39.479Z,5.50
2022-07-31T20:04:27.263Z,5.30
2022-07-31T20:07:13.366Z,5.60
2022-07-31T20:09:59.847Z,5.57
2022-07-31T20:12:45.934Z,5.80
2022-07-31T20:15:52.543Z,6.03
2022-07-31T20:18:38.502Z,6.47
2022-07-31T20:21:26.131Z,5.90
2022-07-31T20:24:19.040Z,5.90
2022-07-31T20:27:05.461Z,6.33
2022-07-31T20:29:51.868Z,6.70
2022-07-31T20:32:38.428Z,6.00
2022-07-31T20:35:47.477Z,6.50
2022-07-31T20:38:37.683Z,6.90
2022-07-31T20:41:24.007Z,6.97
2022-07-31T20:44:10.112Z,6.73
2022-07-31T20:46:56.663Z,6.70
2022-07-31T20:49:42.981Z,6.50
2022-07-31T20:52:29.465Z,7.70
2022-07-31T20:55:16.962Z,7.10
2022-07-31T20:58:03.609Z,7.37
2022-07-31T21:00:51.405Z,6.97
2022-07-31T21:03:38.225Z,6.87
2022-07-31T21:06:24.680Z,7.50
2022-07-31T21:09:10.652Z,7.33
2022-07-31T21:11:58.515Z,7.73
2022-07-31T21:14:44.625Z,7.77
2022-07-31T21:17:31.064Z,7.53
2022-07-31T21:20:17.643Z,8.20
2022-07-31T21:23:04.803Z,8.00
2022-07-31T21:25:51.524Z,8.23
2022-07-31T21:28:39.776Z,7.30
2022-07-31T21:31:26.783Z,8.20
2022-07-31T21:34:13.513Z,8.57
2022-07-31T21:37:00.461Z,8.50
2022-07-31T21:39:49.026Z,8.37
2022-07-31T21:42:35.783Z,8.57
2022-07-31T21:45:43.372Z,8.20
2022-07-31T21:48:38.286Z,8.43
2022-07-31T21:51:24.885Z,8.80
2022-07-31T21:54:15.231Z,7.83
2022-07-31T21:57:01.537Z,8.17
2022-07-31T21:59:47.699Z,8.60
2022-07-31T22:02:35.338Z,9.43
2022-07-31T22:05:39.049Z,8.40
2022-07-31T22:08:25.432Z,9.10
2022-07-31T22:11:11.787Z,9.60
2022-07-31T22:13:57.901Z,8.63
2022-07-31T22:16:44.104Z,9.40
2022-07-31T22:19:33.870Z,9.07
2022-07-31T22:22:20.346Z,9.23
2022-07-31T22:25:08.218Z,8.67
2022-07-31T22:27:56.271Z,8.20
2022-07-31T22:30:42.631Z,9.10
2022-07-31T22:33:28.981Z,8.43
2022-07-31T22:36:16.824Z,8.83
2022-07-31T22:39:03.008Z,9.07
2022-07-31T22:41:49.354Z,8.40
2022-07-31T22:44:37.707Z,9.93
2022-07-31T22:47:24.201Z,8.90
2022-07-31T22:50:13.641Z,9.33
2022-07-31T22:53:01.677Z,9.53
2022-07-31T22:55:47.829Z,10.37
2022-07-31T22:58:33.902Z,10.00
2022-07-31T23:01:20.390Z,9.83
2022-07-31T23:04:06.721Z,10.30
2022-07-31T23:06:53.044Z,10.67
2022-07-31T23:09:40.845Z,10.97
2022-07-31T23:12:28.236Z,11.53
2022-07-31T23:15:15.264Z,11.67
2022-07-31T23:18:01.948Z,11.90
2022-07-31T23:20:48.050Z,11.50
2022-07-31T23:23:34.057Z,11.07
2022-07-31T23:26:24.850Z,11.40
2022-07-31T23:29:11.421Z,11.90
2022-07-31T23:31:57.731Z,12.90
2022-07-31T23:34:44.046Z,12.47
2022-07-31T23:37:30.383Z,11.53
2022-07-31T23:40:16.500Z,13.80
2022-07-31T23:43:03.701Z,13.27
2022-07-31T23:45:50.435Z,13.73
2022-07-31T23:48:39.440Z,13.30
2022-07-31T23:51:26.273Z,12.70
2022-07-31T23:54:12.768Z,14.17
2022-07-31T23:56:58.825Z,13.70
2022-07-31T23:59:46.517Z,13.53
